createdAt,value
2018-09-16T00:00:31.225Z,71.30
2018-09-16T00:03:01.427Z,71.57
2018-09-16T00:05:29.872Z,71.75
2018-09-16T00:07:58.347Z,71.84
2018-09-16T00:10:26.853Z,72.08
2018-09-16T00:12:55.755Z,71.94
2018-09-16T00:15:24.621Z,72.06
2018-09-16T00:17:53.424Z,71.72
2018-09-16T00:20:21.871Z,71.82
2018-09-16T00:22:50.659Z,70.97
2018-09-16T00:25:19.460Z,70.95
2018-09-16T00:27:48.868Z,71.32
2018-09-16T00:30:17.306Z,71.12
2018-09-16T00:32:47.571Z,70.92
2018-09-16T00:35:16.930Z,71.72
2018-09-16T00:37:45.971Z,71.75
2018-09-16T00:40:16.047Z,71.71
2018-09-16T00:42:45.459Z,72.41
2018-09-16T00:45:14.340Z,72.55
2018-09-16T00:47:42.829Z,72.24
2018-09-16T00:50:11.330Z,71.98
2018-09-16T00:52:40.143Z,72.51
2018-09-16T00:55:12.058Z,72.20
2018-09-16T00:57:40.739Z,71.88
2018-09-16T01:00:09.760Z,72.21
2018-09-16T01:02:39.151Z,71.54
2018-09-16T01:05:08.383Z,71.75
2018-09-16T01:07:36.815Z,70.87
2018-09-16T01:10:05.341Z,70.91
2018-09-16T01:12:33.807Z,70.79
2018-09-16T01:15:02.663Z,71.45
2018-09-16T01:17:31.357Z,72.13
2018-09-16T01:20:00.515Z,72.78
2018-09-16T01:22:30.492Z,73.23
2018-09-16T01:24:58.987Z,74.25
2018-09-16T01:27:27.438Z,75.08
2018-09-16T01:29:55.916Z,75.37
2018-09-16T01:32:24.980Z,74.42
2018-09-16T01:34:54.455Z,73.97
2018-09-16T01:37:28.396Z,74.37
2018-09-16T01:39:57.088Z,74.32
2018-09-16T01:42:25.578Z,74.95
2018-09-16T01:44:54.845Z,75.62
2018-09-16T01:47:23.931Z,76.24
2018-09-16T01:49:53.684Z,75.94
2018-09-16T01:52:23.160Z,75.40
2018-09-16T01:54:52.013Z,75.96
2018-09-16T01:57:22.015Z,76.16
2018-09-16T01:59:50.476Z,76.23
2018-09-16T02:02:18.929Z,76.75
2018-09-16T02:04:52.328Z,77.29
2018-09-16T02:07:21.174Z,77.57
2018-09-16T02:09:49.610Z,77.59
2018-09-16T02:12:18.052Z,77.77
2018-09-16T02:14:46.744Z,77.73
2018-09-16T02:17:15.619Z,77.79
2018-09-16T02:19:45.500Z,77.47
2018-09-16T02:22:14.416Z,77.47
2018-09-16T02:24:42.877Z,77.57
2018-09-16T02:27:11.323Z,77.86
2018-09-16T02:29:40.227Z,78.44
2018-09-16T02:32:10.327Z,78.11
2018-09-16T02:34:38.791Z,78.92
2018-09-16T02:37:07.301Z,78.69
2018-09-16T02:39:36.587Z,78.81
2018-09-16T02:42:05.273Z,78.52
2018-09-16T02:44:34.700Z,78.57
2018-09-16T02:47:03.568Z,78.51
2018-09-16T02:49:33.145Z,78.35
2018-09-16T02:52:01.650Z,77.90
2018-09-16T02:54:30.076Z,78.09
2018-09-16T02:56:58.528Z,77.48
2018-09-16T02:59:26.963Z,77.30
2018-09-16T03:01:55.843Z,77.50
2018-09-16T03:04:24.588Z,77.67
2018-09-16T03:06:53.421Z,77.56
2018-09-16T03:09:21.867Z,77.67
2018-09-16T03:11:50.446Z,78.51
2018-09-16T03:14:19.683Z,78.39
2018-09-16T03:16:50.400Z,78.50
2018-09-16T03:19:19.223Z,77.79
2018-09-16T03:21:47.951Z,77.57
2018-09-16T03:24:16.750Z,77.49
2018-09-16T03:26:46.215Z,77.14
2018-09-16T03:29:14.653Z,76.87
2018-09-16T03:31:43.111Z,76.32
2018-09-16T03:34:12.563Z,75.77
2018-09-16T03:36:41.078Z,75.09
2018-09-16T03:39:10.648Z,75.53
2018-09-16T03:41:39.888Z,75.52
2018-09-16T03:44:08.632Z,76.06
2018-09-16T03:46:38.410Z,76.17
2018-09-16T03:49:07.135Z,76.73
2018-09-16T03:51:35.895Z,76.79
2018-09-16T03:54:04.973Z,77.46
2018-09-16T03:56:37.941Z,77.87
2018-09-16T03:59:07.191Z,78.37
2018-09-16T04:01:37.014Z,78.75
2018-09-16T04:04:05.498Z,79.24
2018-09-16T04:06:34.392Z,79.56
2018-09-16T04:09:02.914Z,80.26
2018-09-16T04:11:31.456Z,80.55
2018-09-16T04:14:00.446Z,80.46
2018-09-16T04:16:30.027Z,80.06
2018-09-16T04:19:00.147Z,80.12
2018-09-16T04:21:28.806Z,80.00
2018-09-16T04:23:58.670Z,80.27
2018-09-16T04:26:27.358Z,80.16
2018-09-16T04:28:58.146Z,79.90
2018-09-16T04:31:27.594Z,79.94
2018-09-16T04:33:56.259Z,79.87
2018-09-16T04:36:24.683Z,80.06
2018-09-16T04:38:54.420Z,79.83
2018-09-16T04:41:23.883Z,80.00
2018-09-16T04:43:52.585Z,80.50
2018-09-16T04:46:21.467Z,80.45
2018-09-16T04:48:50.765Z,81.02
2018-09-16T04:51:20.149Z,81.21
2018-09-16T04:53:49.632Z,81.07
2018-09-16T04:56:19.805Z,80.33
2018-09-16T04:58:49.487Z,80.54
2018-09-16T05:01:17.932Z,80.52
2018-09-16T05:03:46.478Z,80.71
2018-09-16T05:06:15.252Z,79.98
2018-09-16T05:08:44.657Z,80.04
2018-09-16T05:11:13.856Z,80.01
2018-09-16T05:13:42.753Z,79.96
2018-09-16T05:16:12.450Z,80.43
2018-09-16T05:18:42.358Z,79.72
2018-09-16T05:21:11.045Z,79.48
2018-09-16T05:23:40.153Z,79.72
2018-09-16T05:26:09.016Z,80.50
2018-09-16T05:28:38.275Z,80.40
2018-09-16T05:31:06.748Z,80.64
2018-09-16T05:33:35.991Z,81.01
2018-09-16T05:36:04.531Z,80.74
2018-09-16T05:38:32.979Z,80.58
2018-09-16T05:41:02.008Z,80.92
2018-09-16T05:43:31.029Z,80.82
2018-09-16T05:45:59.671Z,80.51
2018-09-16T05:48:28.113Z,80.54
2018-09-16T05:50:56.907Z,80.93
2018-09-16T05:53:26.484Z,80.88
2018-09-16T05:55:55.025Z,80.75
2018-09-16T05:58:23.465Z,81.04
2018-09-16T06:00:53.036Z,80.64
2018-09-16T06:03:22.219Z,80.52
2018-09-16T06:05:51.186Z,80.50
2018-09-16T06:08:20.460Z,80.39
2018-09-16T06:10:49.666Z,80.20
2018-09-16T06:13:18.335Z,79.34
2018-09-16T06:15:47.061Z,79.16
2018-09-16T06:18:16.375Z,79.96
2018-09-16T06:20:45.497Z,80.62
2018-09-16T06:23:15.074Z,80.61
2018-09-16T06:25:43.585Z,80.82
2018-09-16T06:28:12.140Z,80.33
2018-09-16T06:30:41.497Z,79.62
2018-09-16T06:33:11.084Z,80.38
2018-09-16T06:35:40.035Z,81.16
2018-09-16T06:38:09.723Z,81.00
2018-09-16T06:40:38.206Z,80.40
2018-09-16T06:43:07.100Z,80.13
2018-09-16T06:45:36.448Z,80.58
2018-09-16T06:48:05.369Z,80.55
2018-09-16T06:50:35.357Z,80.15
2018-09-16T06:53:04.768Z,79.95
2018-09-16T06:55:33.279Z,80.02
2018-09-16T06:58:03.037Z,79.35
2018-09-16T07:00:32.597Z,79.50
2018-09-16T07:03:01.545Z,78.92
2018-09-16T07:05:31.825Z,78.77
2018-09-16T07:08:02.414Z,78.46
2018-09-16T07:10:32.092Z,77.90
2018-09-16T07:13:01.243Z,77.61
2018-09-16T07:15:32.305Z,77.15
2018-09-16T07:18:01.126Z,77.07
2018-09-16T07:20:30.889Z,76.87
2018-09-16T07:23:01.792Z,76.36
2018-09-16T07:25:31.187Z,75.59
2018-09-16T07:27:59.655Z,75.68
2018-09-16T07:30:28.540Z,75.30
2018-09-16T07:32:57.029Z,74.17
2018-09-16T07:35:25.501Z,73.88
2018-09-16T07:37:53.982Z,73.45
2018-09-16T07:40:22.590Z,72.95
2018-09-16T07:42:51.137Z,72.92
2018-09-16T07:45:19.598Z,71.59
2018-09-16T07:47:49.554Z,69.29
2018-09-16T07:50:18.400Z,69.98
2018-09-16T07:52:47.906Z,68.88
2018-09-16T07:55:16.893Z,68.03
2018-09-16T07:57:45.356Z,67.10
2018-09-16T08:00:17.216Z,67.59
2018-09-16T08:02:46.628Z,66.59
2018-09-16T08:05:19.068Z,65.91
2018-09-16T08:07:48.732Z,64.32
2018-09-16T08:10:17.461Z,63.56
2018-09-16T08:12:46.756Z,62.63
2018-09-16T08:15:15.333Z,61.78
2018-09-16T08:17:43.774Z,60.86
2018-09-16T08:20:12.253Z,60.22
2018-09-16T08:22:41.064Z,60.73
2018-09-16T08:25:10.037Z,60.58
2018-09-16T08:27:38.490Z,59.83
2018-09-16T08:30:08.897Z,58.92
2018-09-16T08:32:37.393Z,57.42
2018-09-16T08:35:05.942Z,57.15
2018-09-16T08:37:36.004Z,56.27
2018-09-16T08:40:06.110Z,56.06
2018-09-16T08:42:34.781Z,55.19
2018-09-16T08:45:04.175Z,54.40
2018-09-16T08:47:33.393Z,52.98
2018-09-16T08:50:02.420Z,54.65
2018-09-16T08:52:30.953Z,53.57
2018-09-16T08:55:00.427Z,52.09
2018-09-16T08:57:29.283Z,51.60
2018-09-16T08:59:57.796Z,50.12
2018-09-16T09:02:27.290Z,50.03
2018-09-16T09:04:56.065Z,51.28
2018-09-16T09:07:26.533Z,49.50
2018-09-16T09:09:56.266Z,48.29
2018-09-16T09:12:25.835Z,48.52
2018-09-16T09:14:55.153Z,47.85
2018-09-16T09:17:24.539Z,47.27
2018-09-16T09:19:53.444Z,47.30
2018-09-16T09:22:23.727Z,47.45
2018-09-16T09:24:53.095Z,47.85
2018-09-16T09:27:21.821Z,46.79
2018-09-16T09:29:51.794Z,46.50
2018-09-16T09:32:20.638Z,46.59
2018-09-16T09:34:50.100Z,45.03
2018-09-16T09:37:19.353Z,44.73
2018-09-16T09:39:48.554Z,44.52
2018-09-16T09:42:18.086Z,44.19
2018-09-16T09:44:46.762Z,45.09
2018-09-16T09:47:15.872Z,45.88
2018-09-16T09:49:45.462Z,43.58
2018-09-16T09:52:14.773Z,43.22
2018-09-16T09:54:43.538Z,41.46
2018-09-16T09:57:13.466Z,41.03
2018-09-16T09:59:45.495Z,39.93
2018-09-16T10:02:14.208Z,39.05
2018-09-16T10:04:43.058Z,39.18
2018-09-16T10:07:12.397Z,38.18
2018-09-16T10:09:42.146Z,38.02
2018-09-16T10:12:11.507Z,39.35
2018-09-16T10:14:41.610Z,38.59
2018-09-16T10:17:10.604Z,38.05
2018-09-16T10:19:40.230Z,38.05
2018-09-16T10:22:08.695Z,39.42
2018-09-16T10:24:38.184Z,38.46
2018-09-16T10:27:07.781Z,37.51
2018-09-16T10:29:37.448Z,36.11
2018-09-16T10:32:06.169Z,35.43
2018-09-16T10:34:35.492Z,37.79
2018-09-16T10:37:04.833Z,35.82
2018-09-16T10:39:33.517Z,35.81
2018-09-16T10:42:02.516Z,35.85
2018-09-16T10:44:32.750Z,35.90
2018-09-16T10:47:02.245Z,37.14
2018-09-16T10:49:30.736Z,36.10
2018-09-16T10:51:59.259Z,36.05
2018-09-16T10:54:29.914Z,35.28
2018-09-16T10:56:59.548Z,34.77
2018-09-16T10:59:28.784Z,33.94
2018-09-16T11:01:58.938Z,32.76
2018-09-16T11:04:28.286Z,32.98
2018-09-16T11:06:57.204Z,32.51
2018-09-16T11:09:26.768Z,32.45
2018-09-16T11:11:55.605Z,34.29
2018-09-16T11:14:25.200Z,33.56
2018-09-16T11:16:54.230Z,33.00
2018-09-16T11:19:22.766Z,34.75
2018-09-16T11:21:52.264Z,34.37
2018-09-16T11:24:20.800Z,33.73
2018-09-16T11:26:49.776Z,35.26
2018-09-16T11:29:19.423Z,33.60
2018-09-16T11:31:49.326Z,33.79
2018-09-16T11:34:17.812Z,32.85
2018-09-16T11:36:46.278Z,32.90
2018-09-16T11:39:14.971Z,33.29
2018-09-16T11:41:43.691Z,30.88
2018-09-16T11:44:12.497Z,30.02
2018-09-16T11:46:41.301Z,30.07
2018-09-16T11:49:10.681Z,30.07
2018-09-16T11:51:40.027Z,31.21
2018-09-16T11:54:10.072Z,31.09
2018-09-16T11:56:38.873Z,31.06
2018-09-16T11:59:08.735Z,31.19
2018-09-16T12:01:37.637Z,31.00
2018-09-16T12:04:06.379Z,30.89
2018-09-16T12:06:35.787Z,32.67
2018-09-16T12:09:05.141Z,30.81
2018-09-16T12:11:34.054Z,32.06
2018-09-16T12:14:02.667Z,32.41
2018-09-16T12:16:31.127Z,33.07
2018-09-16T12:19:00.595Z,31.92
2018-09-16T12:21:30.042Z,30.96
2018-09-16T12:23:59.811Z,31.24
2018-09-16T12:26:28.322Z,31.73
2018-09-16T12:28:56.795Z,31.09
2018-09-16T12:31:25.241Z,30.00
2018-09-16T12:33:53.717Z,29.85
2018-09-16T12:36:23.144Z,28.58
2018-09-16T12:38:52.620Z,28.45
2018-09-16T12:41:21.993Z,27.53
2018-09-16T12:43:51.865Z,25.62
2018-09-16T12:46:20.563Z,26.92
2018-09-16T12:48:49.045Z,26.72
2018-09-16T12:51:18.154Z,28.22
2018-09-16T12:53:47.175Z,29.74
2018-09-16T12:56:15.980Z,28.80
2018-09-16T12:58:44.836Z,28.35
2018-09-16T13:01:14.060Z,29.61
2018-09-16T13:03:43.446Z,30.23
2018-09-16T13:06:13.146Z,29.37
2018-09-16T13:08:42.142Z,29.02
2018-09-16T13:11:10.744Z,28.35
2018-09-16T13:13:44.126Z,26.86
2018-09-16T13:16:14.571Z,26.26
2018-09-16T13:18:43.475Z,24.88
2018-09-16T13:21:12.196Z,25.64
2018-09-16T13:23:41.571Z,26.73
2018-09-16T13:26:10.631Z,28.01
2018-09-16T13:28:39.346Z,28.59
2018-09-16T13:31:08.295Z,27.17
2018-09-16T13:33:38.384Z,27.40
2018-09-16T13:36:17.037Z,28.28
2018-09-16T13:38:46.701Z,27.00
2018-09-16T13:41:15.310Z,27.06
2018-09-16T13:43:44.249Z,27.26
2018-09-16T13:46:14.468Z,25.83
2018-09-16T13:48:43.372Z,24.79
2018-09-16T13:51:12.584Z,26.78
2018-09-16T13:53:41.109Z,25.55
2018-09-16T13:56:09.896Z,25.45
2018-09-16T13:58:38.705Z,24.59
2018-09-16T14:01:07.443Z,25.11
2018-09-16T14:03:39.773Z,23.93
2018-09-16T14:06:09.079Z,24.89
2018-09-16T14:08:38.255Z,25.80
2018-09-16T14:11:08.549Z,24.81
2018-09-16T14:13:37.041Z,23.84
2018-09-16T14:16:08.891Z,23.38
2018-09-16T14:18:37.716Z,22.72
2018-09-16T14:21:06.684Z,23.25
2018-09-16T14:23:37.039Z,22.97
2018-09-16T14:26:05.914Z,21.78
2018-09-16T14:28:34.609Z,20.74
2018-09-16T14:31:04.485Z,21.61
2018-09-16T14:33:33.259Z,21.79
2018-09-16T14:36:02.644Z,21.86
2018-09-16T14:38:31.612Z,23.29
2018-09-16T14:41:01.402Z,22.48
2018-09-16T14:43:29.902Z,22.02
2018-09-16T14:46:00.021Z,21.82
2018-09-16T14:48:29.245Z,24.48
2018-09-16T14:50:57.708Z,25.20
2018-09-16T14:53:28.216Z,25.35
2018-09-16T14:55:58.166Z,25.44
2018-09-16T14:58:30.335Z,26.24
2018-09-16T15:00:59.058Z,24.95
2018-09-16T15:03:27.871Z,24.43
2018-09-16T15:05:57.440Z,25.11
2018-09-16T15:08:25.911Z,25.18
2018-09-16T15:10:54.358Z,24.08
2018-09-16T15:13:23.740Z,23.53
2018-09-16T15:15:52.166Z,23.08
2018-09-16T15:18:20.800Z,24.53
2018-09-16T15:20:49.256Z,24.20
2018-09-16T15:23:19.493Z,23.25
2018-09-16T15:25:48.680Z,23.70
2018-09-16T15:28:17.417Z,25.22
2018-09-16T15:30:47.524Z,26.17
2018-09-16T15:33:16.796Z,25.85
2018-09-16T15:35:45.380Z,25.73
2018-09-16T15:38:13.864Z,25.50
2018-09-16T15:40:43.856Z,26.76
2018-09-16T15:43:12.358Z,25.28
2018-09-16T15:45:41.540Z,25.58
2018-09-16T15:48:11.002Z,26.26
2018-09-16T15:50:39.464Z,25.57
2018-09-16T15:53:09.519Z,24.44
2018-09-16T15:55:38.339Z,26.03
2018-09-16T15:58:07.721Z,25.72
2018-09-16T16:00:37.413Z,26.66
2018-09-16T16:03:06.257Z,26.40
2018-09-16T16:05:34.826Z,27.34
2018-09-16T16:08:03.368Z,26.65
2018-09-16T16:10:32.375Z,26.67
2018-09-16T16:13:00.797Z,26.50
2018-09-16T16:15:29.884Z,27.55
2018-09-16T16:17:58.970Z,27.15
2018-09-16T16:20:28.926Z,26.91
2018-09-16T16:22:58.621Z,27.09
2018-09-16T16:25:27.836Z,26.83
2018-09-16T16:27:58.368Z,27.19
2018-09-16T16:30:28.789Z,26.31
2018-09-16T16:33:00.246Z,27.29
2018-09-16T16:35:29.488Z,27.08
2018-09-16T16:37:59.735Z,27.82
2018-09-16T16:40:28.234Z,29.13
2018-09-16T16:42:56.682Z,29.18
2018-09-16T16:45:25.178Z,29.49
2018-09-16T16:47:54.489Z,29.85
2018-09-16T16:50:28.076Z,30.73
2018-09-16T16:52:57.218Z,30.67
2018-09-16T16:55:26.719Z,30.29
2018-09-16T16:57:56.747Z,30.11
2018-09-16T17:00:25.370Z,29.41
2018-09-16T17:02:54.756Z,28.99
2018-09-16T17:05:23.268Z,28.56
2018-09-16T17:07:51.787Z,29.41
2018-09-16T17:10:21.663Z,29.99
2018-09-16T17:12:50.108Z,30.56
2018-09-16T17:15:19.044Z,30.88
2018-09-16T17:17:47.772Z,30.69
2018-09-16T17:20:16.533Z,30.87
2018-09-16T17:22:45.711Z,30.94
2018-09-16T17:25:15.299Z,31.38
2018-09-16T17:27:43.980Z,33.31
2018-09-16T17:30:12.471Z,33.61
2018-09-16T17:32:43.600Z,33.34
2018-09-16T17:35:12.969Z,34.26
2018-09-16T17:37:41.679Z,33.89
2018-09-16T17:40:10.635Z,34.72
2018-09-16T17:42:40.800Z,35.99
2018-09-16T17:45:10.722Z,36.13
2018-09-16T17:47:39.473Z,36.29
2018-09-16T17:50:09.428Z,35.73
2018-09-16T17:52:37.882Z,36.11
2018-09-16T17:55:06.772Z,36.85
2018-09-16T17:57:36.211Z,36.04
2018-09-16T18:00:05.099Z,36.40
2018-09-16T18:02:38.218Z,37.00
2018-09-16T18:05:07.652Z,36.95
2018-09-16T18:07:36.109Z,38.08
2018-09-16T18:10:05.056Z,37.84
2018-09-16T18:12:33.500Z,38.32
2018-09-16T18:15:03.704Z,38.41
2018-09-16T18:17:33.108Z,38.83
2018-09-16T18:20:02.125Z,39.17
2018-09-16T18:22:30.827Z,39.23
2018-09-16T18:25:01.103Z,39.30
2018-09-16T18:27:30.268Z,39.33
2018-09-16T18:29:59.172Z,40.25
2018-09-16T18:32:28.629Z,40.42
2018-09-16T18:34:58.132Z,40.28
2018-09-16T18:37:28.351Z,40.01
2018-09-16T18:39:57.775Z,40.76
2018-09-16T18:42:26.307Z,40.35
2018-09-16T18:44:55.716Z,40.42
2018-09-16T18:47:24.631Z,40.78
2018-09-16T18:49:53.405Z,40.50
2018-09-16T18:52:22.953Z,41.54
2018-09-16T18:54:52.115Z,41.99
2018-09-16T18:57:21.611Z,41.75
2018-09-16T18:59:51.189Z,42.23
2018-09-16T19:02:21.052Z,42.21
2018-09-16T19:04:49.496Z,41.99
2018-09-16T19:07:19.406Z,42.17
2018-09-16T19:09:48.606Z,42.97
2018-09-16T19:12:19.146Z,43.17
2018-09-16T19:14:48.080Z,43.39
2018-09-16T19:17:16.797Z,44.21
2018-09-16T19:19:45.526Z,44.16
2018-09-16T19:22:14.373Z,44.13
2018-09-16T19:24:43.147Z,44.58
2018-09-16T19:27:13.200Z,44.26
2018-09-16T19:29:42.223Z,44.75
2018-09-16T19:32:11.686Z,45.26
2018-09-16T19:34:41.037Z,45.07
2018-09-16T19:37:11.070Z,44.89
2018-09-16T19:39:39.965Z,45.03
2018-09-16T19:42:09.498Z,45.22
2018-09-16T19:44:37.986Z,45.99
2018-09-16T19:47:07.928Z,46.07
2018-09-16T19:49:37.130Z,46.81
2018-09-16T19:52:05.896Z,46.75
2018-09-16T19:54:36.043Z,47.27
2018-09-16T19:57:04.543Z,47.38
2018-09-16T19:59:33.024Z,46.66
2018-09-16T20:02:02.113Z,46.99
2018-09-16T20:04:31.283Z,46.92
2018-09-16T20:07:01.139Z,47.23
2018-09-16T20:09:30.396Z,47.15
2018-09-16T20:11:59.484Z,47.31
2018-09-16T20:14:27.995Z,47.52
2018-09-16T20:16:57.101Z,47.05
2018-09-16T20:19:26.317Z,47.84
2018-09-16T20:21:56.868Z,47.87
2018-09-16T20:24:25.857Z,48.16
2018-09-16T20:26:56.619Z,48.63
2018-09-16T20:29:27.135Z,48.47
2018-09-16T20:31:58.494Z,48.69
2018-09-16T20:34:28.171Z,48.36
2018-09-16T20:37:02.333Z,48.92
2018-09-16T20:39:37.526Z,48.76
2018-09-16T20:42:06.577Z,48.50
2018-09-16T20:44:36.275Z,48.81
2018-09-16T20:47:06.348Z,49.11
2018-09-16T20:49:35.207Z,48.72
2018-09-16T20:52:04.508Z,49.29
2018-09-16T20:54:33.360Z,49.78
2018-09-16T20:57:02.303Z,49.70
2018-09-16T20:59:32.005Z,49.21
2018-09-16T21:02:00.713Z,49.39
2018-09-16T21:04:30.391Z,49.26
2018-09-16T21:06:59.078Z,49.92
2018-09-16T21:09:27.569Z,50.21
2018-09-16T21:11:57.941Z,49.96
2018-09-16T21:14:26.413Z,50.28
2018-09-16T21:16:57.454Z,50.18
2018-09-16T21:19:26.525Z,50.60
2018-09-16T21:21:56.135Z,50.87
2018-09-16T21:24:25.662Z,50.32
2018-09-16T21:26:55.315Z,50.40
2018-09-16T21:29:24.428Z,50.93
2018-09-16T21:31:53.599Z,51.05
2018-09-16T21:34:23.134Z,51.45
2018-09-16T21:36:53.036Z,52.09
2018-09-16T21:39:21.498Z,51.89
2018-09-16T21:41:50.827Z,52.48
2018-09-16T21:44:20.161Z,52.54
2018-09-16T21:46:49.201Z,52.50
2018-09-16T21:49:18.290Z,53.20
2018-09-16T21:51:48.204Z,53.20
2018-09-16T21:54:17.076Z,53.81
2018-09-16T21:56:45.660Z,53.64
2018-09-16T21:59:15.101Z,54.02
2018-09-16T22:01:44.504Z,54.13
2018-09-16T22:04:13.863Z,55.12
2018-09-16T22:06:42.846Z,54.91
2018-09-16T22:09:11.844Z,55.25
2018-09-16T22:11:41.566Z,55.27
2018-09-16T22:14:10.439Z,55.46
2018-09-16T22:16:39.121Z,54.64
2018-09-16T22:19:08.490Z,54.93
2018-09-16T22:21:37.206Z,55.31
2018-09-16T22:24:09.649Z,56.05
2018-09-16T22:26:40.987Z,55.73
2018-09-16T22:29:09.457Z,55.51
2018-09-16T22:31:39.397Z,55.30
2018-09-16T22:34:09.408Z,54.85
2018-09-16T22:36:38.891Z,54.72
2018-09-16T22:39:09.709Z,55.00
2018-09-16T22:41:38.432Z,55.63
2018-09-16T22:44:06.900Z,56.10
2018-09-16T22:46:35.953Z,55.90
2018-09-16T22:49:06.145Z,56.02
2018-09-16T22:51:35.243Z,55.22
2018-09-16T22:54:05.950Z,57.20
2018-09-16T22:56:34.557Z,57.18
2018-09-16T22:59:03.009Z,56.86
2018-09-16T23:01:31.754Z,57.68
2018-09-16T23:04:00.475Z,57.24
2018-09-16T23:06:29.216Z,56.86
2018-09-16T23:09:05.970Z,56.66
2018-09-16T23:11:35.000Z,57.17
2018-09-16T23:14:04.903Z,57.06
2018-09-16T23:16:33.725Z,56.76
2018-09-16T23:19:06.800Z,56.89
2018-09-16T23:21:35.507Z,56.63
2018-09-16T23:24:05.430Z,56.20
2018-09-16T23:26:34.619Z,57.15
2018-09-16T23:29:03.906Z,57.05
2018-09-16T23:31:33.580Z,57.25
2018-09-16T23:34:02.010Z,57.60
2018-09-16T23:36:30.583Z,57.87
2018-09-16T23:38:59.994Z,57.45
2018-09-16T23:41:28.478Z,57.29
2018-09-16T23:43:56.928Z,57.43
2018-09-16T23:46:26.310Z,57.59
2018-09-16T23:48:55.455Z,57.95
2018-09-16T23:51:25.993Z,57.83
2018-09-16T23:53:54.533Z,58.31
2018-09-16T23:56:23.232Z,58.82
2018-09-16T23:58:52.123Z,58.22
